Time;durP1;ratioP1;P1;durP2;ratioP2;P2;SDS_P1;SDS_P2;PMS_P1;PMS_P2;Temp;Humidity;BMP_temperature;BMP_pressure;BME280_temperature;BME280_humidity;BME280_pressure;Samples;Min_cycle;Max_cycle;Signal;HPM_P1;HPM_P2
2021/07/31 00:02:23;;;;;;;;;3.00;2.00;;;;;19.33;48.39;100892.72;4995392;28;45443;-91
2021/07/31 00:04:50;;;;;;;;;1.00;1.00;;;;;19.31;48.59;100894.66;4979496;28;45321;-91
2021/07/31 00:07:16;;;;;;;;;3.33;1.67;;;;;19.29;48.49;100894.75;4973161;28;44896;-91
2021/07/31 00:09:42;;;;;;;;;2.00;2.00;;;;;19.28;48.97;100900.97;4974814;28;45392;-91
2021/07/31 00:12:07;;;;;;;;;2.67;2.67;;;;;19.26;48.62;100907.31;4994794;28;45407;-91
2021/07/31 00:14:33;;;;;;;;;6.00;2.67;;;;;19.20;48.91;100906.78;4977934;28;46938;-90
2021/07/31 00:16:58;;;;;;;;;3.00;2.00;;;;;19.13;48.46;100896.78;4961189;28;45472;-90
2021/07/31 00:19:27;;;;;;;;;3.00;2.00;;;;;19.16;48.77;100904.50;4977554;28;45444;-91
2021/07/31 00:21:52;;;;;;;;;1.00;1.00;;;;;19.07;48.40;100893.63;4994346;28;45230;-91
2021/07/31 00:24:21;;;;;;;;;1.67;1.33;;;;;19.00;48.91;100891.47;4961551;28;47217;-91
2021/07/31 00:26:46;;;;;;;;;1.00;1.00;;;;;19.00;48.73;100900.25;4977869;28;46933;-90
2021/07/31 00:29:11;;;;;;;;;2.00;1.00;;;;;18.98;48.86;100909.22;4978732;28;45636;-90
2021/07/31 00:31:37;;;;;;;;;4.67;1.33;;;;;18.93;49.00;100904.25;4979592;28;45288;-90
2021/07/31 00:34:02;;;;;;;;;1.67;1.67;;;;;18.85;49.09;100894.25;4978890;28;45445;-91
2021/07/31 00:36:28;;;;;;;;;1.00;1.00;;;;;18.86;49.01;100895.06;4978922;28;45456;-91
2021/07/31 00:38:53;;;;;;;;;2.00;0.67;;;;;18.86;49.17;100900.34;4960850;28;45651;-91
2021/07/31 00:41:19;;;;;;;;;1.33;1.00;;;;;18.86;49.19;100900.34;4977449;28;45571;-90
2021/07/31 00:43:44;;;;;;;;;3.00;1.00;;;;;18.85;49.17;100911.84;4961567;28;46919;-91
2021/07/31 00:46:11;;;;;;;;;1.00;1.00;;;;;18.81;49.37;100911.22;4979014;28;45341;-91
2021/07/31 00:48:36;;;;;;;;;3.00;1.00;;;;;18.77;49.14;100901.81;4961870;28;45453;-91
2021/07/31 00:51:02;;;;;;;;;1.00;1.00;;;;;18.74;49.59;100907.31;4973569;28;45450;-91
2021/07/31 00:53:28;;;;;;;;;1.00;1.00;;;;;18.66;49.29;100890.19;4977154;28;47359;-91
2021/07/31 00:55:57;;;;;;;;;1.00;1.00;;;;;18.64;49.59;100899.16;4977222;28;45539;-91
2021/07/31 00:58:23;;;;;;;;;1.00;1.00;;;;;18.63;49.85;100900.13;4977083;28;45391;-91
2021/07/31 01:00:51;;;;;;;;;1.75;1.75;;;;;18.55;49.82;100896.22;4960779;28;45342;-91
2021/07/31 01:03:17;;;;;;;;;2.00;2.00;;;;;18.57;49.57;100901.38;4978571;28;45378;-91
2021/07/31 01:05:43;;;;;;;;;2.67;2.00;;;;;18.55;50.00;100903.25;4960890;28;45345;-90
2021/07/31 01:08:08;;;;;;;;;1.33;1.00;;;;;18.57;50.38;100904.03;4961153;28;45348;-91
2021/07/31 01:10:34;;;;;;;;;2.00;2.00;;;;;18.51;50.04;100907.91;4974017;28;45598;-91
2021/07/31 01:13:01;;;;;;;;;2.25;1.00;;;;;18.51;50.29;100901.81;4976973;28;48889;-90
2021/07/31 01:15:27;;;;;;;;;0.00;0.00;;;;;18.50;50.11;100908.84;4977390;28;45551;-91
2021/07/31 01:17:53;;;;;;;;;1.00;1.00;;;;;18.48;50.33;100902.84;4978145;28;45286;-91
2021/07/31 01:20:18;;;;;;;;;1.00;1.00;;;;;18.47;50.35;100895.03;4988248;28;45417;-91
2021/07/31 01:22:44;;;;;;;;;1.00;1.00;;;;;18.46;50.10;100902.09;4957531;28;48030;-91
2021/07/31 01:25:10;;;;;;;;;2.00;1.00;;;;;18.44;50.49;100904.00;4959081;28;45505;-91
2021/07/31 01:27:39;;;;;;;;;1.00;1.00;;;;;18.38;50.60;100893.88;4959051;28;45303;-91
2021/07/31 01:30:05;;;;;;;;;2.67;1.00;;;;;18.35;50.67;100894.06;4957752;28;45399;-91
2021/07/31 01:32:31;;;;;;;;;2.00;2.00;;;;;18.33;50.98;100899.41;4974007;28;47587;-90
2021/07/31 01:34:56;;;;;;;;;3.00;2.00;;;;;18.29;50.90;100893.53;4972643;28;45759;-90
2021/07/31 01:37:22;;;;;;;;;1.00;1.00;;;;;18.25;51.11;100897.31;4976755;28;45422;-91
2021/07/31 01:39:48;;;;;;;;;1.67;1.67;;;;;18.25;51.51;100905.22;4976997;28;45462;-91
2021/07/31 01:42:14;;;;;;;;;1.00;1.00;;;;;18.22;51.22;100894.03;4976263;28;45532;-90
2021/07/31 01:44:40;;;;;;;;;1.00;1.00;;;;;18.23;51.31;100908.91;4960604;28;45259;-91
2021/07/31 01:47:05;;;;;;;;;1.50;1.00;;;;;18.20;51.51;100895.94;4960860;28;45319;-91
2021/07/31 01:49:32;;;;;;;;;4.00;2.00;;;;;18.18;51.48;100898.66;4977260;28;45376;-91
2021/07/31 01:51:57;;;;;;;;;4.00;2.00;;;;;18.19;51.72;100902.97;4975447;28;48150;-91
2021/07/31 01:54:23;;;;;;;;;2.00;1.33;;;;;18.15;51.71;100906.78;4976441;28;45892;-91
2021/07/31 01:56:48;;;;;;;;;2.33;1.00;;;;;18.16;51.49;100901.38;4993280;28;45386;-91
2021/07/31 01:59:14;;;;;;;;;2.00;2.00;;;;;18.17;51.40;100904.88;4960644;28;45598;-91
2021/07/31 02:01:40;;;;;;;;;1.00;1.00;;;;;18.16;51.80;100900.56;4977371;28;46212;-91
2021/07/31 02:04:05;;;;;;;;;1.75;1.00;;;;;18.09;51.52;100901.91;4995710;28;45370;-91
2021/07/31 02:06:31;;;;;;;;;2.00;2.00;;;;;18.09;51.90;100908.00;4977959;28;45425;-91
2021/07/31 02:08:56;;;;;;;;;1.00;1.00;;;;;18.08;51.99;100908.94;4960271;28;45333;-91
2021/07/31 02:11:22;;;;;;;;;2.00;2.00;;;;;18.06;51.75;100902.97;4977550;28;45378;-91
2021/07/31 02:13:47;;;;;;;;;1.75;1.75;;;;;18.03;52.26;100898.69;4954307;28;45250;-91
2021/07/31 02:16:24;;;;;;;;;2.50;2.50;;;;;18.05;52.23;100900.38;4959420;28;45315;-91
2021/07/31 02:18:50;;;;;;;;;3.00;2.00;;;;;18.03;52.10;100896.06;4977853;28;45406;-91
2021/07/31 02:21:15;;;;;;;;;1.50;1.50;;;;;18.03;52.39;100895.22;4977672;28;45525;-91
2021/07/31 02:23:40;;;;;;;;;3.50;1.00;;;;;17.98;52.54;100895.53;4977257;28;45441;-90
2021/07/31 02:26:06;;;;;;;;;2.00;2.00;;;;;17.92;52.47;100880.13;4967594;28;45313;-91
2021/07/31 02:28:31;;;;;;;;;4.00;2.25;;;;;17.90;52.56;100889.88;4993064;28;45293;-91
2021/07/31 02:30:57;;;;;;;;;3.00;2.00;;;;;17.88;52.43;100894.41;4992762;28;47380;-91
2021/07/31 02:33:23;;;;;;;;;1.25;1.00;;;;;17.82;52.75;100886.94;4992620;28;45591;-91
2021/07/31 02:35:48;;;;;;;;;1.00;1.00;;;;;17.80;53.06;100891.41;4974777;28;45409;-91
2021/07/31 02:38:14;;;;;;;;;3.00;1.50;;;;;17.78;53.06;100888.91;4957940;28;45261;-91
2021/07/31 02:40:39;;;;;;;;;2.00;2.00;;;;;17.72;53.28;100889.28;4956501;28;47018;-91
2021/07/31 02:43:05;;;;;;;;;1.00;1.00;;;;;17.69;53.54;100892.94;4956582;28;45274;-91
2021/07/31 02:45:30;;;;;;;;;2.00;1.67;;;;;17.67;53.77;100883.50;4940665;28;45651;-91
2021/07/31 02:47:55;;;;;;;;;1.33;1.33;;;;;17.65;53.65;100880.94;4975296;28;45517;-91
2021/07/31 02:50:21;;;;;;;;;1.67;1.67;;;;;17.62;53.71;100882.00;4977140;28;45383;-91
2021/07/31 02:52:46;;;;;;;;;1.00;1.00;;;;;17.59;53.40;100882.16;4976852;28;45590;-91
2021/07/31 02:55:12;;;;;;;;;1.25;1.25;;;;;17.61;53.62;100887.34;4992608;28;45773;-90
2021/07/31 02:57:38;;;;;;;;;1.67;1.67;;;;;17.54;53.43;100876.34;4965940;28;45490;-91
2021/07/31 03:00:05;;;;;;;;;1.75;1.75;;;;;17.55;53.51;100883.31;4954724;28;47266;-92
2021/07/31 03:02:30;;;;;;;;;2.00;2.00;;;;;17.54;53.81;100875.53;4975690;28;45436;-91
2021/07/31 03:04:55;;;;;;;;;3.25;1.00;;;;;17.55;53.81;100877.22;4976913;28;45402;-90
2021/07/31 03:07:21;;;;;;;;;3.25;2.00;;;;;17.53;53.95;100881.75;4956462;28;45315;-91
2021/07/31 03:09:47;;;;;;;;;2.00;2.00;;;;;17.54;53.74;100888.69;4975240;28;47247;-90
2021/07/31 03:12:12;;;;;;;;;2.00;2.00;;;;;17.54;54.06;100883.41;4977142;28;45509;-90
2021/07/31 03:14:37;;;;;;;;;1.75;1.75;;;;;17.50;54.16;100875.72;4979204;28;45316;-91
2021/07/31 03:17:03;;;;;;;;;3.50;2.00;;;;;17.48;54.44;100885.50;4963098;28;45567;-91
2021/07/31 03:19:28;;;;;;;;;2.25;1.00;;;;;17.46;53.70;100876.00;4972885;28;47409;-90
2021/07/31 03:21:54;;;;;;;;;1.00;1.00;;;;;17.41;54.26;100875.44;4994928;28;45328;-90
2021/07/31 03:24:19;;;;;;;;;2.00;2.00;;;;;17.38;54.57;100873.00;4995225;28;45328;-91
2021/07/31 03:26:45;;;;;;;;;3.67;2.00;;;;;17.38;54.71;100881.75;4995596;28;45359;-90
2021/07/31 03:29:10;;;;;;;;;2.00;1.00;;;;;17.33;54.51;100882.03;4988828;28;48240;-91
2021/07/31 03:31:36;;;;;;;;;1.75;1.75;;;;;17.29;55.01;100891.06;4980103;28;45469;-90
2021/07/31 03:34:01;;;;;;;;;1.50;1.50;;;;;17.26;54.68;100885.16;4979716;28;45371;-90
2021/07/31 03:36:26;;;;;;;;;2.67;2.67;;;;;17.19;54.92;100872.38;4978723;28;45465;-91
2021/07/31 03:38:52;;;;;;;;;5.50;2.00;;;;;17.22;54.86;100879.25;4977077;28;47405;-90
2021/07/31 03:41:17;;;;;;;;;2.00;2.00;;;;;17.19;55.27;100880.28;4962152;28;45411;-91
2021/07/31 03:43:43;;;;;;;;;3.50;1.25;;;;;17.20;55.47;100889.00;4994751;28;45471;-90
2021/07/31 03:46:08;;;;;;;;;1.75;1.75;;;;;17.17;54.97;100887.41;4962597;28;45496;-91
2021/07/31 03:48:34;;;;;;;;;2.00;2.00;;;;;17.17;55.14;100879.50;4978077;28;46822;-91
2021/07/31 03:50:59;;;;;;;;;4.50;2.50;;;;;17.16;55.41;100890.09;4968820;28;45349;-91
2021/07/31 03:53:25;;;;;;;;;2.75;1.00;;;;;17.16;55.60;100885.72;4978452;28;45458;-91
2021/07/31 03:55:50;;;;;;;;;1.00;1.00;;;;;17.17;55.40;100903.16;4978660;28;45638;-91
2021/07/31 03:58:16;;;;;;;;;1.00;1.00;;;;;17.13;55.52;100885.88;4978176;28;47253;-91
2021/07/31 04:00:43;;;;;;;;;1.00;1.00;;;;;17.17;55.55;100905.81;4958680;28;45328;-91
2021/07/31 04:03:09;;;;;;;;;1.75;1.25;;;;;17.17;55.66;100907.59;4994847;28;45237;-91
2021/07/31 04:05:37;;;;;;;;;3.00;2.00;;;;;17.13;55.51;100906.91;4994885;28;45436;-90
2021/07/31 04:08:02;;;;;;;;;1.00;1.00;;;;;17.11;55.66;100907.97;4993834;28;48390;-91
2021/07/31 04:10:28;;;;;;;;;3.00;2.00;;;;;17.07;55.87;100902.91;4977931;28;45467;-91
2021/07/31 04:12:53;;;;;;;;;2.25;2.00;;;;;17.08;55.59;100907.22;4978648;28;45897;-91
2021/07/31 04:15:19;;;;;;;;;4.00;1.00;;;;;17.07;55.59;100900.25;4978734;28;45466;-91
2021/07/31 04:17:44;;;;;;;;;2.00;2.00;;;;;17.04;55.79;100899.63;4994704;28;47396;-91
2021/07/31 04:20:11;;;;;;;;;3.00;1.50;;;;;17.04;55.68;100896.97;4979188;28;45288;-90
2021/07/31 04:22:36;;;;;;;;;1.00;1.00;;;;;17.05;55.86;100898.66;4974071;28;45497;-91
2021/07/31 04:25:02;;;;;;;;;3.00;2.25;;;;;17.04;56.01;100902.25;4994510;28;45518;-90
2021/07/31 04:27:27;;;;;;;;;3.00;3.00;;;;;16.99;56.24;100894.59;4979180;28;45263;-91
2021/07/31 04:29:53;;;;;;;;;2.00;2.00;;;;;17.03;56.18;100911.06;4994281;28;45524;-91
2021/07/31 04:32:18;;;;;;;;;1.33;1.33;;;;;17.02;55.83;100909.31;4992230;28;45238;-91
2021/07/31 04:34:44;;;;;;;;;3.75;2.00;;;;;16.98;56.07;100906.03;4977640;28;45565;-91
2021/07/31 04:37:09;;;;;;;;;5.00;1.50;;;;;17.00;56.37;100912.06;4978995;28;45580;-91
2021/07/31 04:39:37;;;;;;;;;2.00;2.00;;;;;17.02;55.99;100904.06;4977789;28;45963;-91
2021/07/31 04:42:03;;;;;;;;;2.50;1.50;;;;;17.05;56.04;100911.81;4973466;28;45390;-90
2021/07/31 04:44:28;;;;;;;;;2.00;1.00;;;;;17.05;55.86;100906.56;4952907;28;45625;-91
2021/07/31 04:46:55;;;;;;;;;3.25;2.25;;;;;17.07;55.98;100908.16;4977424;28;46121;-91
2021/07/31 04:49:20;;;;;;;;;2.00;2.00;;;;;17.07;55.87;100905.53;4961364;28;45307;-91
2021/07/31 04:51:46;;;;;;;;;2.00;2.00;;;;;17.12;56.34;100909.66;4961594;28;45326;-91
2021/07/31 04:54:11;;;;;;;;;1.67;1.67;;;;;17.08;56.01;100898.50;4974057;28;45617;-90
2021/07/31 04:56:37;;;;;;;;;2.00;2.00;;;;;17.08;56.18;100904.56;4985754;28;47253;-92
2021/07/31 04:59:03;;;;;;;;;1.50;1.00;;;;;17.05;56.45;100898.66;4957960;28;45402;-91
2021/07/31 05:01:29;;;;;;;;;3.00;2.00;;;;;17.04;56.59;100905.69;4942162;28;45459;-92
2021/07/31 05:03:54;;;;;;;;;1.00;1.00;;;;;17.05;56.71;100901.28;4958517;28;45365;-92
2021/07/31 05:06:22;;;;;;;;;2.75;1.50;;;;;17.02;56.47;100904.06;5001604;28;47085;-91
2021/07/31 05:08:47;;;;;;;;;4.50;3.00;;;;;17.00;56.72;100904.19;4977709;28;45534;-91
2021/07/31 05:11:13;;;;;;;;;2.00;2.00;;;;;16.98;56.68;100911.28;4971178;28;45363;-90
2021/07/31 05:13:38;;;;;;;;;2.00;1.00;;;;;16.95;57.10;100909.69;4966398;28;45573;-91
2021/07/31 05:16:04;;;;;;;;;2.67;2.33;;;;;16.83;57.12;100907.81;4965450;28;47294;-90
2021/07/31 05:18:30;;;;;;;;;1.00;1.00;;;;;16.86;57.31;100912.03;4993978;28;45404;-92
2021/07/31 05:20:57;;;;;;;;;2.33;2.00;;;;;16.87;57.37;100911.09;4976623;28;45245;-90
2021/07/31 05:23:23;;;;;;;;;2.33;2.00;;;;;16.87;57.30;100905.84;4977078;28;44934;-90
2021/07/31 05:25:48;;;;;;;;;3.33;2.00;;;;;16.88;57.77;100904.91;4958609;28;47416;-90
2021/07/31 05:28:14;;;;;;;;;2.00;2.00;;;;;16.90;57.37;100918.81;4977953;28;45418;-92
2021/07/31 05:30:40;;;;;;;;;3.00;3.00;;;;;16.87;56.95;100914.59;4993185;28;44705;-90
2021/07/31 05:33:06;;;;;;;;;2.00;1.33;;;;;16.88;57.94;100918.03;4993310;28;45360;-90
2021/07/31 05:35:32;;;;;;;;;2.67;2.67;;;;;16.87;57.75;100916.34;4977466;28;45388;-90
2021/07/31 05:37:57;;;;;;;;;4.00;3.00;;;;;16.88;57.67;100916.28;4976016;28;45465;-90
2021/07/31 05:40:22;;;;;;;;;3.67;2.33;;;;;16.89;57.67;100917.97;4976259;28;45558;-90
2021/07/31 05:42:48;;;;;;;;;2.00;2.00;;;;;16.89;58.09;100914.50;4977023;28;45587;-90
2021/07/31 05:45:13;;;;;;;;;3.00;2.33;;;;;16.89;57.98;100915.31;4977901;28;45503;-92
2021/07/31 05:47:39;;;;;;;;;3.33;2.33;;;;;16.94;57.72;100928.22;4975014;28;45425;-93
2021/07/31 05:50:07;;;;;;;;;2.33;2.33;;;;;16.91;58.11;100923.13;4961546;28;45604;-91
2021/07/31 05:52:37;;;;;;;;;2.00;2.00;;;;;16.90;58.08;100927.53;4957842;28;45325;-92
2021/07/31 05:55:04;;;;;;;;;2.67;2.67;;;;;16.88;58.33;100926.78;4956977;28;47360;-91
2021/07/31 05:57:30;;;;;;;;;2.00;2.00;;;;;16.90;58.30;100935.41;4958460;28;45433;-91
2021/07/31 05:59:55;;;;;;;;;5.67;3.00;;;;;16.91;58.21;100928.38;4984550;28;45768;-91
2021/07/31 06:02:20;;;;;;;;;4.33;3.33;;;;;16.95;58.54;100928.09;4993051;28;45310;-91
2021/07/31 06:04:46;;;;;;;;;6.00;3.00;;;;;16.98;58.28;100936.75;4975854;28;47220;-92
2021/07/31 06:07:13;;;;;;;;;4.67;2.67;;;;;16.97;58.50;100938.53;4960738;28;45313;-91
2021/07/31 06:09:44;;;;;;;;;3.00;2.67;;;;;16.99;58.20;100927.94;4977024;28;44742;-92
2021/07/31 06:12:10;;;;;;;;;4.00;2.00;;;;;17.01;58.61;100931.31;4974629;28;45434;-91
2021/07/31 06:14:40;;;;;;;;;4.00;3.33;;;;;16.99;58.42;100933.19;4993032;28;47419;-92
2021/07/31 06:17:11;;;;;;;;;4.00;3.00;;;;;17.02;58.25;100938.25;4976889;28;45385;-91
2021/07/31 06:19:36;;;;;;;;;4.00;4.00;;;;;17.05;58.44;100943.38;4960301;28;45446;-92
2021/07/31 06:22:03;;;;;;;;;3.00;3.00;;;;;17.04;58.52;100941.69;4961883;28;45518;-91
2021/07/31 06:24:29;;;;;;;;;6.00;3.00;;;;;17.06;58.03;100940.66;4958526;28;47205;-91
2021/07/31 06:26:57;;;;;;;;;3.33;2.00;;;;;17.09;58.59;100942.25;4956528;28;45331;-92
2021/07/31 06:29:23;;;;;;;;;4.00;3.00;;;;;17.13;58.47;100949.00;4961548;28;45386;-91
2021/07/31 06:31:51;;;;;;;;;2.33;2.33;;;;;17.15;58.54;100949.75;4965791;28;44841;-91
2021/07/31 06:34:18;;;;;;;;;3.33;3.00;;;;;17.17;58.34;100953.13;4959428;28;47876;-91
2021/07/31 06:36:46;;;;;;;;;5.00;4.00;;;;;17.22;58.41;100953.69;4992314;28;45270;-92
2021/07/31 06:39:12;;;;;;;;;4.33;4.00;;;;;17.22;58.33;100955.50;4991836;28;45503;-91
2021/07/31 06:41:37;;;;;;;;;4.00;4.00;;;;;17.26;58.99;100954.34;4975762;28;45642;-90
2021/07/31 06:44:03;;;;;;;;;6.33;3.67;;;;;17.29;58.47;100946.28;4978369;28;46941;-92
2021/07/31 06:46:29;;;;;;;;;4.67;3.67;;;;;17.33;58.57;100952.19;4960149;28;45385;-91
2021/07/31 06:48:56;;;;;;;;;4.00;4.00;;;;;17.35;58.67;100945.06;4965379;28;45445;-91
2021/07/31 06:51:22;;;;;;;;;3.33;1.67;;;;;17.40;58.16;100945.63;4980221;28;45363;-92
2021/07/31 06:53:49;;;;;;;;;3.00;3.00;;;;;17.47;58.40;100951.34;4974651;28;47366;-92
2021/07/31 06:56:14;;;;;;;;;5.00;4.00;;;;;17.52;58.49;100957.19;4962803;28;45456;-91
2021/07/31 06:58:40;;;;;;;;;2.00;2.00;;;;;17.54;58.47;100954.47;4952499;28;45448;-92
2021/07/31 07:01:19;;;;;;;;;5.33;4.33;;;;;17.56;58.40;100942.03;4943931;28;44861;-91
2021/07/31 07:03:59;;;;;;;;;3.33;3.00;;;;;17.66;58.11;100948.44;4980031;28;47302;-92
2021/07/31 07:06:25;;;;;;;;;4.00;2.00;;;;;17.70;58.54;100952.56;4991380;28;45284;-91
2021/07/31 07:08:50;;;;;;;;;4.00;4.00;;;;;17.80;57.96;100959.84;4963403;28;45566;-91
2021/07/31 07:11:17;;;;;;;;;5.00;4.33;;;;;17.83;58.39;100957.88;4972949;28;45583;-91
2021/07/31 07:13:45;;;;;;;;;2.67;2.67;;;;;17.85;58.00;100950.75;4972476;28;45428;-92
2021/07/31 07:16:11;;;;;;;;;4.00;3.00;;;;;17.91;57.70;100957.38;4943418;28;45405;-92
2021/07/31 07:18:37;;;;;;;;;4.33;3.67;;;;;17.94;57.94;100957.22;4982176;28;45343;-90
2021/07/31 07:21:07;;;;;;;;;1.67;1.67;;;;;18.03;57.37;100967.16;4949037;28;45647;-92
2021/07/31 07:23:34;;;;;;;;;4.00;3.33;;;;;18.05;57.66;100961.78;4974386;28;47420;-92
2021/07/31 07:26:00;;;;;;;;;5.00;4.00;;;;;18.07;57.62;100957.31;4956086;28;45456;-91
2021/07/31 07:28:25;;;;;;;;;3.00;3.00;;;;;18.15;57.74;100968.16;4962397;28;45560;-91
2021/07/31 07:30:51;;;;;;;;;5.00;4.00;;;;;18.22;57.60;100968.63;4977081;28;45516;-92
2021/07/31 07:33:16;;;;;;;;;4.67;4.00;;;;;18.28;57.65;100970.00;4956939;28;47028;-92
2021/07/31 07:35:42;;;;;;;;;4.33;4.00;;;;;18.33;56.93;100972.34;4979784;28;45266;-90
2021/07/31 07:38:07;;;;;;;;;6.33;4.33;;;;;18.32;57.22;100960.13;4970969;28;45433;-91
2021/07/31 07:40:34;;;;;;;;;7.00;4.67;;;;;18.38;56.85;100963.19;4975059;28;45210;-92
2021/07/31 07:43:01;;;;;;;;;3.00;3.00;;;;;18.45;56.93;100968.91;4942820;28;47434;-91
2021/07/31 07:45:27;;;;;;;;;4.00;4.00;;;;;18.46;56.85;100967.97;4942880;28;45533;-92
2021/07/31 07:47:52;;;;;;;;;3.00;3.00;;;;;18.49;56.44;100961.66;4945833;28;45469;-91
2021/07/31 07:50:18;;;;;;;;;6.00;4.00;;;;;18.55;56.26;100969.16;4971994;28;45281;-91
2021/07/31 07:52:43;;;;;;;;;6.00;4.33;;;;;18.56;56.52;100965.56;4974856;28;46922;-91
2021/07/31 07:55:11;;;;;;;;;4.67;3.00;;;;;18.65;56.03;100966.75;4963811;28;45600;-90
2021/07/31 07:57:45;;;;;;;;;5.00;4.00;;;;;18.65;55.80;100969.41;4943087;28;45351;-92
2021/07/31 08:00:14;;;;;;;;;4.00;4.00;;;;;18.64;55.85;100965.91;4974554;28;45510;-91
2021/07/31 08:02:39;;;;;;;;;6.67;5.00;;;;;18.63;55.85;100963.38;4958629;28;47141;-91
2021/07/31 08:05:06;;;;;;;;;3.67;3.00;;;;;18.66;56.11;100960.53;4959734;28;45396;-91
2021/07/31 08:07:31;;;;;;;;;5.00;3.00;;;;;18.69;55.83;100961.19;4959878;28;45440;-91
2021/07/31 08:09:59;;;;;;;;;7.33;4.33;;;;;18.75;55.86;100962.53;4956246;28;45305;-91
2021/07/31 08:12:24;;;;;;;;;3.00;3.00;;;;;18.76;55.72;100973.94;4979318;28;46673;-90
2021/07/31 08:14:50;;;;;;;;;4.33;4.33;;;;;18.71;55.73;100963.72;4977825;28;44848;-92
2021/07/31 08:17:16;;;;;;;;;4.67;3.00;;;;;18.76;55.59;100972.16;4962303;28;45251;-91
2021/07/31 08:19:41;;;;;;;;;5.00;4.33;;;;;18.78;55.64;100972.03;4962623;28;45531;-91
2021/07/31 08:22:07;;;;;;;;;5.00;3.00;;;;;18.83;55.48;100970.78;4959166;28;47140;-92
2021/07/31 08:24:35;;;;;;;;;5.67;5.00;;;;;18.89;55.39;100982.69;4977393;28;46775;-91
2021/07/31 08:27:03;;;;;;;;;5.00;3.00;;;;;18.91;54.98;100975.56;4969290;28;45510;-91
2021/07/31 08:29:31;;;;;;;;;4.00;4.00;;;;;18.94;55.34;100971.88;4966755;28;45683;-91
2021/07/31 08:31:57;;;;;;;;;3.67;3.00;;;;;19.01;55.16;100970.50;4969287;28;47058;-91
2021/07/31 08:34:22;;;;;;;;;3.33;3.00;;;;;19.07;54.82;100974.53;4960154;28;45317;-91
2021/07/31 08:36:47;;;;;;;;;5.67;3.00;;;;;19.08;54.86;100969.13;4970934;28;45611;-91
2021/07/31 08:39:15;;;;;;;;;5.00;4.00;;;;;19.16;54.98;100967.78;4974524;28;45586;-91
2021/07/31 08:41:50;;;;;;;;;3.67;3.67;;;;;19.24;54.25;100976.00;4956405;28;46303;-92
2021/07/31 08:44:21;;;;;;;;;5.00;4.67;;;;;19.32;54.45;100978.13;4990260;28;45454;-92
2021/07/31 08:46:50;;;;;;;;;4.00;4.00;;;;;19.36;54.08;100961.94;4994778;28;45339;-92
2021/07/31 08:49:32;;;;;;;;;;;;;;;;;;;;;
2021/07/31 08:51:59;;;;;;;;;3.00;3.00;;;;;19.55;54.02;100968.59;4978270;28;74251;-91
2021/07/31 08:54:35;;;;;;;;;5.00;4.67;;;;;19.67;53.88;100974.78;4976725;28;45424;-91
2021/07/31 08:57:13;;;;;;;;;4.00;2.67;;;;;19.71;53.82;100976.25;4979227;28;45793;-91
2021/07/31 08:59:41;;;;;;;;;9.00;4.00;;;;;19.86;53.91;100971.69;4961453;28;45361;-91
2021/07/31 09:02:15;;;;;;;;;6.67;4.00;;;;;19.98;53.15;100975.28;4960910;28;47316;-92
2021/07/31 09:04:43;;;;;;;;;4.67;3.00;;;;;20.05;53.13;100965.13;4992283;28;45589;-91
2021/07/31 09:07:14;;;;;;;;;4.00;4.00;;;;;20.13;53.03;100968.03;4977400;28;45246;-90
2021/07/31 09:09:41;;;;;;;;;3.00;3.00;;;;;20.29;52.74;100977.47;4957332;28;45370;-91
2021/07/31 09:12:09;;;;;;;;;4.33;4.33;;;;;20.37;52.41;100974.28;4973840;28;45682;-90
2021/07/31 09:14:45;;;;;;;;;3.00;3.00;;;;;20.37;52.00;100971.63;4960550;28;45535;-91
2021/07/31 09:17:42;;;;;;;;;4.00;3.00;;;;;20.41;52.27;100984.50;4943446;28;45377;-91
2021/07/31 09:20:17;;;;;;;;;3.67;3.67;;;;;20.40;51.92;100984.59;4955400;28;45358;-92
2021/07/31 09:22:52;;;;;;;;;5.00;3.00;;;;;20.35;51.61;100981.44;4959310;28;47270;-92
2021/07/31 09:25:22;;;;;;;;;3.67;3.33;;;;;20.31;51.78;100970.28;4972590;28;45416;-92
2021/07/31 09:27:47;;;;;;;;;3.67;2.00;;;;;20.33;51.61;100972.81;4972868;28;45349;-92
2021/07/31 09:30:15;;;;;;;;;3.67;2.33;;;;;20.37;52.04;100975.09;4977448;28;45328;-93
2021/07/31 09:32:44;;;;;;;;;6.00;4.67;;;;;20.49;52.08;100970.72;4952151;28;48258;-92
2021/07/31 09:35:58;;;;;;;;;;;;;;;;;;;;;
2021/07/31 09:38:40;;;;;;;;;3.00;3.00;;;;;20.63;50.96;100959.09;4925339;28;68936;-92
2021/07/31 09:41:23;;;;;;;;;5.67;3.00;;;;;20.72;51.13;100956.72;4942087;28;45558;-92
2021/07/31 09:44:01;;;;;;;;;2.00;2.00;;;;;20.72;51.11;100957.56;4936819;28;47009;-92
2021/07/31 09:46:34;;;;;;;;;6.33;4.33;;;;;20.69;51.01;100942.78;4923563;28;45445;-92
2021/07/31 09:49:06;;;;;;;;;3.00;3.00;;;;;20.73;50.56;100947.84;4942831;28;46821;-91
2021/07/31 09:51:33;;;;;;;;;3.00;3.00;;;;;20.73;50.48;100953.94;4930639;28;46018;-91
2021/07/31 09:54:10;;;;;;;;;5.33;3.33;;;;;20.74;51.05;100952.16;4922241;28;48158;-92
2021/07/31 09:57:02;;;;;;;;;3.00;2.33;;;;;20.76;51.10;100935.22;4913357;28;45598;-92
2021/07/31 09:59:31;;;;;;;;;5.00;4.00;;;;;20.88;50.95;100943.22;4920038;28;45378;-92
2021/07/31 10:02:03;;;;;;;;;3.00;3.00;;;;;20.93;50.84;100930.47;4920796;28;44844;-92
2021/07/31 10:04:32;;;;;;;;;2.67;2.67;;;;;21.04;50.67;100933.13;4922191;28;45469;-92
2021/07/31 10:07:09;;;;;;;;;1.67;1.67;;;;;21.13;50.22;100923.63;4917935;28;45445;-92
2021/07/31 10:09:40;;;;;;;;;5.00;3.00;;;;;21.26;50.47;100931.47;4917820;28;45302;-91
2021/07/31 10:12:11;;;;;;;;;4.00;3.00;;;;;21.37;50.27;100927.94;4917889;28;45474;-92
2021/07/31 10:15:01;;;;;;;;;4.00;3.00;;;;;21.40;50.23;100921.56;4931949;28;48133;-93
2021/07/31 10:17:31;;;;;;;;;2.00;2.00;;;;;21.52;49.51;100925.88;4983222;28;45411;-92
2021/07/31 10:20:00;;;;;;;;;5.00;3.00;;;;;21.59;50.02;100910.34;4966085;28;45267;-92
2021/07/31 10:22:44;;;;;;;;;3.00;3.00;;;;;21.77;49.55;100918.66;4961488;28;45584;-94
2021/07/31 10:25:22;;;;;;;;;4.00;4.00;;;;;21.97;49.33;100918.84;4973012;28;47066;-92
2021/07/31 10:28:28;;;;;;;;;4.33;3.00;;;;;22.11;49.27;100915.03;4959804;28;44847;-92
2021/07/31 10:31:30;;;;;;;;;5.00;3.33;;;;;22.16;48.67;100911.06;4961377;28;45471;-92
2021/07/31 10:33:59;;;;;;;;;2.33;2.33;;;;;22.21;48.78;100910.66;4976828;28;45384;-92
2021/07/31 10:36:51;;;;;;;;;3.00;3.00;;;;;22.22;47.63;100914.19;4968996;28;46994;-91
2021/07/31 10:39:37;;;;;;;;;3.33;2.67;;;;;22.15;47.67;100913.84;4975643;28;45500;-92
2021/07/31 10:42:14;;;;;;;;;2.00;2.00;;;;;22.10;47.40;100903.63;4934256;28;45525;-91
2021/07/31 10:45:34;;;;;;;;;;;;;;;;;;;;;
2021/07/31 10:48:14;;;;;;;;;2.33;2.33;;;;;22.02;46.67;100912.19;4972159;28;75164;-91
2021/07/31 10:50:40;;;;;;;;;1.33;1.33;;;;;22.06;47.83;100914.59;4966049;28;45469;-91
2021/07/31 10:53:14;;;;;;;;;2.67;2.67;;;;;22.11;48.21;100907.94;4994835;28;45398;-91
2021/07/31 10:55:48;;;;;;;;;3.00;3.00;;;;;22.23;48.19;100913.19;4986825;28;45904;-92
2021/07/31 10:58:15;;;;;;;;;3.33;3.33;;;;;22.35;47.62;100914.81;4968746;28;48196;-91
2021/07/31 11:00:52;;;;;;;;;3.00;3.00;;;;;22.45;47.85;100911.41;4976115;28;45485;-90
2021/07/31 11:03:21;;;;;;;;;2.33;2.33;;;;;22.61;47.63;100908.31;4967518;28;45472;-91
2021/07/31 11:05:49;;;;;;;;;3.33;3.33;;;;;22.65;47.21;100904.44;4971427;28;45728;-91
2021/07/31 11:08:26;;;;;;;;;3.33;2.33;;;;;22.65;47.26;100913.25;4974685;28;47796;-92
2021/07/31 11:10:59;;;;;;;;;3.00;2.33;;;;;22.68;47.52;100912.16;4966276;28;45663;-91
2021/07/31 11:13:28;;;;;;;;;3.00;3.00;;;;;22.73;47.61;100915.22;4956712;28;45511;-91
2021/07/31 11:15:59;;;;;;;;;5.33;4.00;;;;;22.76;46.92;100909.69;4971881;28;45462;-91
2021/07/31 11:18:42;;;;;;;;;7.33;4.33;;;;;22.79;47.03;100911.22;4972020;28;46936;-91
2021/07/31 11:21:26;;;;;;;;;5.33;5.00;;;;;22.81;47.22;100904.81;4977280;28;45416;-92
2021/07/31 11:24:08;;;;;;;;;3.00;3.00;;;;;22.94;47.15;100912.56;4957259;28;45842;-91
2021/07/31 11:26:51;;;;;;;;;;;;;;;;;;;;;
2021/07/31 11:29:19;;;;;;;;;3.33;2.33;;;;;23.39;47.10;100915.84;4959072;28;74750;-91
2021/07/31 11:31:59;;;;;;;;;3.33;2.67;;;;;23.55;46.50;100899.38;4976418;28;45278;-91
2021/07/31 11:34:44;;;;;;;;;;;;;;;;;;;;;
2021/07/31 11:37:12;;;;;;;;;2.00;2.00;;;;;23.71;45.88;100903.34;4956879;28;62763;-91
2021/07/31 11:39:47;;;;;;;;;1.00;1.00;;;;;23.78;46.13;100903.63;4976708;28;47199;-91